Terminal Aerodrome Forecast
Issued by NWS

Home | Current Version | Previous Version | Text Only | Print | Product List | Glossary On
Versions: 1 2 3 4 5 6 7 8 9 10 11 12 13
000
FTUS43 KDDC 132300
TAFGCK
TAF
KGCK 132320Z 1400/1424 36025G35KT P6SM OVC010
      TEMPO 1400/1404 3SM -RASN
     FM140400 36015G25KT 2SM -SN OVC007
     FM141400 36020G28KT P6SM BKN010=

USA.gov is the U.S. government's official web portal to all federal, state and local government web resources and services.